KCDS

Childress Municipal Airport

Childress, Texas, USA
METAR KCDS 161153Z AUTO 33008KT 10SM CLR 06/M04 A3015 RMK AO2 SLP207 T00611039 10083 20056 53004
Observed Flight Rules
Dec-16 @ 11:53 UTC (52 minutes ago) Visual Flight Rules
Wind Visibility Clouds
330° at 8 knots 10 miles
  • Clear skies
Temperatures Readings
Current 6°C / 43°F
Dewpoint -4°C / 25°F
Humidity 49%
Altimeter 30.15" Hg
Pressure 1020.7 hPa
Elevation 594
METAR KCDS 161153Z AUTO 33008KT 10SM CLR 06/M04 A3015 RMK AO2 SLP207 T00611039 10083 20056 53004
Observed Flight Rules
Dec-16 @ 11:53 UTC
(52 minutes ago)
VFR
Wind Visibility
330° at 8 knots 10 miles
Clouds
  • Clear skies
Temperature Dewpoint
6°C / 43°F -4°C / 25°F
Humidity Altimeter Pressure
49% 30.15" Hg 1020.7 hPa